sensor_id;sensor_type;location;lat;lon;timestamp;temperature;humidity
13205;DHT22;6667;52.634;9.226;2023-08-06T00:01:00;14.70;99.90
13205;DHT22;6667;52.634;9.226;2023-08-06T00:03:27;14.70;99.90
13205;DHT22;6667;52.634;9.226;2023-08-06T00:05:55;14.70;99.90
13205;DHT22;6667;52.634;9.226;2023-08-06T00:08:22;14.80;99.90
13205;DHT22;6667;52.634;9.226;2023-08-06T00:10:48;14.70;99.90
13205;DHT22;6667;52.634;9.226;2023-08-06T00:13:15;14.70;99.90
13205;DHT22;6667;52.634;9.226;2023-08-06T00:15:42;14.70;99.90
13205;DHT22;6667;52.634;9.226;2023-08-06T00:18:08;14.70;99.90
13205;DHT22;6667;52.634;9.226;2023-08-06T00:20:35;14.70;99.90
13205;DHT22;6667;52.634;9.226;2023-08-06T00:23:06;14.70;99.90
13205;DHT22;6667;52.634;9.226;2023-08-06T00:25:32;14.70;99.90
13205;DHT22;6667;52.634;9.226;2023-08-06T00:28:00;14.60;99.90
13205;DHT22;6667;52.634;9.226;2023-08-06T00:30:27;14.60;99.90
13205;DHT22;6667;52.634;9.226;2023-08-06T00:32:53;14.70;99.90
13205;DHT22;6667;52.634;9.226;2023-08-06T00:35:21;14.60;99.90
13205;DHT22;6667;52.634;9.226;2023-08-06T00:37:47;14.60;99.90
13205;DHT22;6667;52.634;9.226;2023-08-06T00:40:15;14.70;99.90
13205;DHT22;6667;52.634;9.226;2023-08-06T00:42:42;14.60;99.90
13205;DHT22;6667;52.634;9.226;2023-08-06T00:45:10;14.60;99.90
13205;DHT22;6667;52.634;9.226;2023-08-06T00:47:37;14.50;99.90
13205;DHT22;6667;52.634;9.226;2023-08-06T00:50:06;14.60;99.90
13205;DHT22;6667;52.634;9.226;2023-08-06T00:52:33;14.50;99.90
13205;DHT22;6667;52.634;9.226;2023-08-06T00:55:00;14.50;99.90
13205;DHT22;6667;52.634;9.226;2023-08-06T00:57:28;14.60;99.90
13205;DHT22;6667;52.634;9.226;2023-08-06T00:59:55;14.60;99.90
13205;DHT22;6667;52.634;9.226;2023-08-06T01:02:22;14.60;99.90
13205;DHT22;6667;52.634;9.226;2023-08-06T01:04:49;14.50;99.90
13205;DHT22;6667;52.634;9.226;2023-08-06T01:07:21;14.60;99.90
13205;DHT22;6667;52.634;9.226;2023-08-06T01:10:00;14.60;99.90
13205;DHT22;6667;52.634;9.226;2023-08-06T01:12:45;14.60;99.90
13205;DHT22;6667;52.634;9.226;2023-08-06T01:15:16;14.60;99.90
13205;DHT22;6667;52.634;9.226;2023-08-06T01:17:45;14.60;99.90
13205;DHT22;6667;52.634;9.226;2023-08-06T01:20:12;14.60;99.90
13205;DHT22;6667;52.634;9.226;2023-08-06T01:22:40;14.70;99.90
13205;DHT22;6667;52.634;9.226;2023-08-06T01:25:07;14.60;99.90
13205;DHT22;6667;52.634;9.226;2023-08-06T01:27:41;14.60;99.90
13205;DHT22;6667;52.634;9.226;2023-08-06T01:30:12;14.60;99.90
13205;DHT22;6667;52.634;9.226;2023-08-06T01:32:43;14.60;99.90
13205;DHT22;6667;52.634;9.226;2023-08-06T01:35:12;14.60;99.90
13205;DHT22;6667;52.634;9.226;2023-08-06T01:37:42;14.50;99.90
13205;DHT22;6667;52.634;9.226;2023-08-06T01:40:10;14.50;99.90
13205;DHT22;6667;52.634;9.226;2023-08-06T01:42:37;14.40;99.90
13205;DHT22;6667;52.634;9.226;2023-08-06T01:45:04;14.50;99.90
13205;DHT22;6667;52.634;9.226;2023-08-06T01:47:31;14.60;99.90
13205;DHT22;6667;52.634;9.226;2023-08-06T01:49:58;14.50;99.90
13205;DHT22;6667;52.634;9.226;2023-08-06T01:52:25;14.60;99.90
13205;DHT22;6667;52.634;9.226;2023-08-06T01:54:53;14.60;99.90
13205;DHT22;6667;52.634;9.226;2023-08-06T01:57:19;14.70;99.90
13205;DHT22;6667;52.634;9.226;2023-08-06T01:59:46;14.70;99.90
13205;DHT22;6667;52.634;9.226;2023-08-06T02:02:13;14.70;99.90
13205;DHT22;6667;52.634;9.226;2023-08-06T02:04:39;14.60;99.90
13205;DHT22;6667;52.634;9.226;2023-08-06T02:07:06;14.60;99.90
13205;DHT22;6667;52.634;9.226;2023-08-06T02:09:33;14.60;99.90
13205;DHT22;6667;52.634;9.226;2023-08-06T02:12:02;14.50;99.90
13205;DHT22;6667;52.634;9.226;2023-08-06T02:14:29;14.50;99.90
13205;DHT22;6667;52.634;9.226;2023-08-06T02:16:56;14.50;99.90
13205;DHT22;6667;52.634;9.226;2023-08-06T02:19:23;14.50;99.90
13205;DHT22;6667;52.634;9.226;2023-08-06T02:21:50;14.40;99.90
13205;DHT22;6667;52.634;9.226;2023-08-06T02:24:16;14.40;99.90
13205;DHT22;6667;52.634;9.226;2023-08-06T02:26:43;14.40;99.90
13205;DHT22;6667;52.634;9.226;2023-08-06T02:29:11;14.40;99.90
13205;DHT22;6667;52.634;9.226;2023-08-06T02:31:38;14.40;99.90
13205;DHT22;6667;52.634;9.226;2023-08-06T02:34:04;14.40;99.90
13205;DHT22;6667;52.634;9.226;2023-08-06T02:36:31;14.40;99.90
13205;DHT22;6667;52.634;9.226;2023-08-06T02:38:58;14.40;99.90
13205;DHT22;6667;52.634;9.226;2023-08-06T02:41:24;14.60;99.90
13205;DHT22;6667;52.634;9.226;2023-08-06T02:43:52;14.60;99.90
13205;DHT22;6667;52.634;9.226;2023-08-06T02:46:20;14.70;99.90
13205;DHT22;6667;52.634;9.226;2023-08-06T02:48:47;14.70;99.90
13205;DHT22;6667;52.634;9.226;2023-08-06T02:51:14;14.60;99.90
13205;DHT22;6667;52.634;9.226;2023-08-06T02:53:41;14.60;99.90
13205;DHT22;6667;52.634;9.226;2023-08-06T02:56:07;14.60;99.90
13205;DHT22;6667;52.634;9.226;2023-08-06T02:58:34;14.60;99.90
13205;DHT22;6667;52.634;9.226;2023-08-06T03:01:01;14.60;99.90
13205;DHT22;6667;52.634;9.226;2023-08-06T03:03:30;14.50;99.90
13205;DHT22;6667;52.634;9.226;2023-08-06T03:05:57;14.40;99.90
13205;DHT22;6667;52.634;9.226;2023-08-06T03:08:24;14.40;99.90
13205;DHT22;6667;52.634;9.226;2023-08-06T03:10:51;14.40;99.90
13205;DHT22;6667;52.634;9.226;2023-08-06T03:13:19;14.30;99.90
13205;DHT22;6667;52.634;9.226;2023-08-06T03:15:52;14.20;99.90
13205;DHT22;6667;52.634;9.226;2023-08-06T03:18:20;14.20;99.90
13205;DHT22;6667;52.634;9.226;2023-08-06T03:20:48;14.20;99.90
13205;DHT22;6667;52.634;9.226;2023-08-06T03:23:15;14.10;99.90
13205;DHT22;6667;52.634;9.226;2023-08-06T03:25:42;14.10;99.90
13205;DHT22;6667;52.634;9.226;2023-08-06T03:28:08;14.10;99.90
13205;DHT22;6667;52.634;9.226;2023-08-06T03:30:35;14.10;99.90
13205;DHT22;6667;52.634;9.226;2023-08-06T03:33:02;14.10;99.90
13205;DHT22;6667;52.634;9.226;2023-08-06T03:35:29;14.10;99.90
13205;DHT22;6667;52.634;9.226;2023-08-06T03:37:57;14.10;99.90
13205;DHT22;6667;52.634;9.226;2023-08-06T03:40:23;14.10;99.90
13205;DHT22;6667;52.634;9.226;2023-08-06T03:42:50;14.10;99.90
13205;DHT22;6667;52.634;9.226;2023-08-06T03:45:17;14.10;99.90
13205;DHT22;6667;52.634;9.226;2023-08-06T03:47:43;14.10;99.90
13205;DHT22;6667;52.634;9.226;2023-08-06T03:50:10;14.10;99.90
13205;DHT22;6667;52.634;9.226;2023-08-06T03:52:37;14.20;99.90
13205;DHT22;6667;52.634;9.226;2023-08-06T03:55:05;14.20;99.90
13205;DHT22;6667;52.634;9.226;2023-08-06T03:57:32;14.20;99.90
13205;DHT22;6667;52.634;9.226;2023-08-06T03:59:59;14.10;99.90
13205;DHT22;6667;52.634;9.226;2023-08-06T04:02:26;14.10;99.90
13205;DHT22;6667;52.634;9.226;2023-08-06T04:04:52;14.10;99.90
13205;DHT22;6667;52.634;9.226;2023-08-06T04:07:19;14.20;99.90
13205;DHT22;6667;52.634;9.226;2023-08-06T04:09:53;14.10;99.90
13205;DHT22;6667;52.634;9.226;2023-08-06T04:12:22;14.20;99.90
13205;DHT22;6667;52.634;9.226;2023-08-06T04:14:50;14.20;99.90
13205;DHT22;6667;52.634;9.226;2023-08-06T04:17:17;14.10;99.90
13205;DHT22;6667;52.634;9.226;2023-08-06T04:19:46;14.20;99.90
13205;DHT22;6667;52.634;9.226;2023-08-06T04:22:13;14.20;99.90
13205;DHT22;6667;52.634;9.226;2023-08-06T04:24:39;14.10;99.90
13205;DHT22;6667;52.634;9.226;2023-08-06T04:27:06;14.10;99.90
13205;DHT22;6667;52.634;9.226;2023-08-06T04:29:34;14.10;99.90
13205;DHT22;6667;52.634;9.226;2023-08-06T04:32:01;14.10;99.90
13205;DHT22;6667;52.634;9.226;2023-08-06T04:34:28;14.10;99.90
13205;DHT22;6667;52.634;9.226;2023-08-06T04:36:54;14.00;99.90
13205;DHT22;6667;52.634;9.226;2023-08-06T04:39:21;14.00;99.90
13205;DHT22;6667;52.634;9.226;2023-08-06T04:41:48;14.00;99.90
13205;DHT22;6667;52.634;9.226;2023-08-06T04:44:15;14.00;99.90
13205;DHT22;6667;52.634;9.226;2023-08-06T04:46:43;13.90;99.90
13205;DHT22;6667;52.634;9.226;2023-08-06T04:49:09;13.90;99.90
13205;DHT22;6667;52.634;9.226;2023-08-06T04:51:36;14.00;99.90
13205;DHT22;6667;52.634;9.226;2023-08-06T04:54:03;14.00;99.90
13205;DHT22;6667;52.634;9.226;2023-08-06T04:56:29;14.00;99.90
13205;DHT22;6667;52.634;9.226;2023-08-06T04:58:58;14.10;99.90
13205;DHT22;6667;52.634;9.226;2023-08-06T05:01:25;14.00;99.90
13205;DHT22;6667;52.634;9.226;2023-08-06T05:03:53;14.00;99.90
13205;DHT22;6667;52.634;9.226;2023-08-06T05:06:19;14.10;99.90
13205;DHT22;6667;52.634;9.226;2023-08-06T05:08:48;14.00;99.90
13205;DHT22;6667;52.634;9.226;2023-08-06T05:11:15;14.10;99.90
13205;DHT22;6667;52.634;9.226;2023-08-06T05:13:42;14.10;99.90
13205;DHT22;6667;52.634;9.226;2023-08-06T05:16:08;14.10;99.90
13205;DHT22;6667;52.634;9.226;2023-08-06T05:18:35;14.10;99.90
13205;DHT22;6667;52.634;9.226;2023-08-06T05:21:04;14.10;99.90
13205;DHT22;6667;52.634;9.226;2023-08-06T05:23:31;14.10;99.90
13205;DHT22;6667;52.634;9.226;2023-08-06T05:25:57;14.30;99.90
13205;DHT22;6667;52.634;9.226;2023-08-06T05:28:24;14.40;99.90
13205;DHT22;6667;52.634;9.226;2023-08-06T05:30:51;14.60;99.90
13205;DHT22;6667;52.634;9.226;2023-08-06T05:33:18;14.50;99.90
13205;DHT22;6667;52.634;9.226;2023-08-06T05:35:44;14.70;99.90
13205;DHT22;6667;52.634;9.226;2023-08-06T05:38:12;14.70;99.90
13205;DHT22;6667;52.634;9.226;2023-08-06T05:40:39;14.70;99.90
13205;DHT22;6667;52.634;9.226;2023-08-06T05:43:06;14.80;99.90
13205;DHT22;6667;52.634;9.226;2023-08-06T05:45:32;14.80;99.90
13205;DHT22;6667;52.634;9.226;2023-08-06T05:47:59;14.80;99.90
13205;DHT22;6667;52.634;9.226;2023-08-06T05:50:26;14.80;99.90
13205;DHT22;6667;52.634;9.226;2023-08-06T05:52:52;14.80;99.90
13205;DHT22;6667;52.634;9.226;2023-08-06T05:55:21;14.90;99.90
13205;DHT22;6667;52.634;9.226;2023-08-06T05:57:48;15.00;99.90
13205;DHT22;6667;52.634;9.226;2023-08-06T06:00:15;15.10;99.90
13205;DHT22;6667;52.634;9.226;2023-08-06T06:02:42;15.30;99.90
13205;DHT22;6667;52.634;9.226;2023-08-06T06:05:09;15.50;99.90
13205;DHT22;6667;52.634;9.226;2023-08-06T06:07:49;15.60;99.90
13205;DHT22;6667;52.634;9.226;2023-08-06T06:10:16;15.60;99.90
13205;DHT22;6667;52.634;9.226;2023-08-06T06:12:45;15.70;99.90
13205;DHT22;6667;52.634;9.226;2023-08-06T06:15:12;15.90;99.90
13205;DHT22;6667;52.634;9.226;2023-08-06T06:17:39;16.10;99.90
13205;DHT22;6667;52.634;9.226;2023-08-06T06:20:07;16.00;99.90
13205;DHT22;6667;52.634;9.226;2023-08-06T06:22:34;16.10;99.90
13205;DHT22;6667;52.634;9.226;2023-08-06T06:25:01;16.30;99.90
13205;DHT22;6667;52.634;9.226;2023-08-06T06:27:37;16.30;99.90
13205;DHT22;6667;52.634;9.226;2023-08-06T06:30:07;16.00;99.90
13205;DHT22;6667;52.634;9.226;2023-08-06T06:32:34;16.00;99.90
13205;DHT22;6667;52.634;9.226;2023-08-06T06:35:01;15.90;99.90
13205;DHT22;6667;52.634;9.226;2023-08-06T06:37:28;16.20;99.90
13205;DHT22;6667;52.634;9.226;2023-08-06T06:39:55;16.50;99.90
13205;DHT22;6667;52.634;9.226;2023-08-06T06:49:16;16.80;99.90
13205;DHT22;6667;52.634;9.226;2023-08-06T06:51:43;17.20;99.90
13205;DHT22;6667;52.634;9.226;2023-08-06T06:54:10;17.80;99.90
13205;DHT22;6667;52.634;9.226;2023-08-06T06:56:37;17.50;99.90
13205;DHT22;6667;52.634;9.226;2023-08-06T06:59:04;17.90;99.90
13205;DHT22;6667;52.634;9.226;2023-08-06T07:01:31;17.90;99.90
13205;DHT22;6667;52.634;9.226;2023-08-06T07:04:00;18.10;99.90
13205;DHT22;6667;52.634;9.226;2023-08-06T07:06:31;18.10;99.90
13205;DHT22;6667;52.634;9.226;2023-08-06T07:08:58;18.90;99.90
13205;DHT22;6667;52.634;9.226;2023-08-06T07:11:25;19.60;99.90
13205;DHT22;6667;52.634;9.226;2023-08-06T07:13:56;19.70;99.90
13205;DHT22;6667;52.634;9.226;2023-08-06T07:16:27;19.70;99.90
13205;DHT22;6667;52.634;9.226;2023-08-06T07:18:55;20.40;99.90
13205;DHT22;6667;52.634;9.226;2023-08-06T07:21:25;21.00;99.90
13205;DHT22;6667;52.634;9.226;2023-08-06T07:23:54;21.00;99.90
13205;DHT22;6667;52.634;9.226;2023-08-06T07:26:30;20.70;99.90
13205;DHT22;6667;52.634;9.226;2023-08-06T07:28:57;21.20;99.90
13205;DHT22;6667;52.634;9.226;2023-08-06T07:31:23;21.20;99.90
13205;DHT22;6667;52.634;9.226;2023-08-06T07:33:51;21.00;99.90
13205;DHT22;6667;52.634;9.226;2023-08-06T07:36:18;21.00;99.90
13205;DHT22;6667;52.634;9.226;2023-08-06T07:38:45;20.70;99.90
13205;DHT22;6667;52.634;9.226;2023-08-06T07:41:15;21.20;99.90
13205;DHT22;6667;52.634;9.226;2023-08-06T07:43:58;21.80;99.90
13205;DHT22;6667;52.634;9.226;2023-08-06T07:46:25;22.50;99.90
13205;DHT22;6667;52.634;9.226;2023-08-06T07:48:52;22.90;99.90
13205;DHT22;6667;52.634;9.226;2023-08-06T07:51:19;22.20;99.90
13205;DHT22;6667;52.634;9.226;2023-08-06T07:53:46;21.80;99.90
13205;DHT22;6667;52.634;9.226;2023-08-06T07:56:15;22.50;99.90
13205;DHT22;6667;52.634;9.226;2023-08-06T07:58:41;23.20;99.90
13205;DHT22;6667;52.634;9.226;2023-08-06T08:01:26;23.60;99.90
13205;DHT22;6667;52.634;9.226;2023-08-06T08:03:53;22.50;99.90
13205;DHT22;6667;52.634;9.226;2023-08-06T08:06:20;22.50;99.90
13205;DHT22;6667;52.634;9.226;2023-08-06T08:08:47;23.00;99.90
13205;DHT22;6667;52.634;9.226;2023-08-06T08:11:20;23.10;99.90
13205;DHT22;6667;52.634;9.226;2023-08-06T08:13:47;22.40;99.90
13205;DHT22;6667;52.634;9.226;2023-08-06T08:16:14;22.90;99.90
13205;DHT22;6667;52.634;9.226;2023-08-06T08:18:41;24.00;99.90
13205;DHT22;6667;52.634;9.226;2023-08-06T08:21:07;23.80;99.90
13205;DHT22;6667;52.634;9.226;2023-08-06T08:23:34;23.60;99.90
13205;DHT22;6667;52.634;9.226;2023-08-06T08:26:11;22.80;99.90
13205;DHT22;6667;52.634;9.226;2023-08-06T08:28:40;23.50;99.90
13205;DHT22;6667;52.634;9.226;2023-08-06T08:31:08;24.00;99.90
13205;DHT22;6667;52.634;9.226;2023-08-06T08:33:35;23.50;99.90
13205;DHT22;6667;52.634;9.226;2023-08-06T08:36:03;23.00;99.90
13205;DHT22;6667;52.634;9.226;2023-08-06T08:41:24;23.10;99.90
13205;DHT22;6667;52.634;9.226;2023-08-06T08:43:52;22.80;99.90
13205;DHT22;6667;52.634;9.226;2023-08-06T08:46:20;23.80;99.90
13205;DHT22;6667;52.634;9.226;2023-08-06T08:48:47;24.60;99.90
13205;DHT22;6667;52.634;9.226;2023-08-06T08:51:17;25.10;99.90
13205;DHT22;6667;52.634;9.226;2023-08-06T08:53:46;25.60;99.90
13205;DHT22;6667;52.634;9.226;2023-08-06T08:56:13;26.10;99.90
13205;DHT22;6667;52.634;9.226;2023-08-06T08:58:40;26.60;99.90
13205;DHT22;6667;52.634;9.226;2023-08-06T09:01:09;25.80;99.90
13205;DHT22;6667;52.634;9.226;2023-08-06T09:03:37;25.60;99.90
13205;DHT22;6667;52.634;9.226;2023-08-06T09:06:05;26.40;99.90
13205;DHT22;6667;52.634;9.226;2023-08-06T09:08:36;26.40;99.90
13205;DHT22;6667;52.634;9.226;2023-08-06T09:11:04;26.80;99.90
13205;DHT22;6667;52.634;9.226;2023-08-06T09:14:09;27.00;99.90
13205;DHT22;6667;52.634;9.226;2023-08-06T09:16:47;27.40;99.90
13205;DHT22;6667;52.634;9.226;2023-08-06T09:19:15;26.60;99.90
13205;DHT22;6667;52.634;9.226;2023-08-06T09:21:53;26.10;99.90
13205;DHT22;6667;52.634;9.226;2023-08-06T09:24:20;25.80;99.90
13205;DHT22;6667;52.634;9.226;2023-08-06T09:26:47;26.60;99.90
13205;DHT22;6667;52.634;9.226;2023-08-06T09:29:31;27.80;99.90
13205;DHT22;6667;52.634;9.226;2023-08-06T09:31:59;28.00;99.90
13205;DHT22;6667;52.634;9.226;2023-08-06T09:34:29;28.20;99.90
13205;DHT22;6667;52.634;9.226;2023-08-06T09:36:59;27.40;99.90
13205;DHT22;6667;52.634;9.226;2023-08-06T09:42:09;26.50;99.90
13205;DHT22;6667;52.634;9.226;2023-08-06T09:44:36;25.80;99.90
13205;DHT22;6667;52.634;9.226;2023-08-06T09:54:11;27.30;99.90
13205;DHT22;6667;52.634;9.226;2023-08-06T09:57:08;28.20;99.90
13205;DHT22;6667;52.634;9.226;2023-08-06T09:59:39;29.10;99.90
13205;DHT22;6667;52.634;9.226;2023-08-06T10:02:36;29.40;99.90
13205;DHT22;6667;52.634;9.226;2023-08-06T10:08:18;29.50;99.90
13205;DHT22;6667;52.634;9.226;2023-08-06T10:11:07;30.00;99.90
13205;DHT22;6667;52.634;9.226;2023-08-06T10:13:37;29.50;99.90
13205;DHT22;6667;52.634;9.226;2023-08-06T10:16:05;29.40;99.90
13205;DHT22;6667;52.634;9.226;2023-08-06T10:18:37;29.10;99.90
13205;DHT22;6667;52.634;9.226;2023-08-06T10:21:07;29.50;99.90
13205;DHT22;6667;52.634;9.226;2023-08-06T10:23:43;30.30;99.90
13205;DHT22;6667;52.634;9.226;2023-08-06T10:26:10;30.30;99.90
13205;DHT22;6667;52.634;9.226;2023-08-06T10:28:38;31.30;99.90
13205;DHT22;6667;52.634;9.226;2023-08-06T10:31:19;30.90;99.90
13205;DHT22;6667;52.634;9.226;2023-08-06T10:33:48;31.20;99.90
13205;DHT22;6667;52.634;9.226;2023-08-06T10:39:48;30.00;99.90
13205;DHT22;6667;52.634;9.226;2023-08-06T10:42:20;28.80;99.90
13205;DHT22;6667;52.634;9.226;2023-08-06T10:48:30;30.20;99.90
13205;DHT22;6667;52.634;9.226;2023-08-06T10:51:00;30.30;99.90
13205;DHT22;6667;52.634;9.226;2023-08-06T10:53:45;30.30;99.90
13205;DHT22;6667;52.634;9.226;2023-08-06T10:56:30;30.40;99.90
13205;DHT22;6667;52.634;9.226;2023-08-06T10:58:57;30.20;99.90
13205;DHT22;6667;52.634;9.226;2023-08-06T11:01:24;29.50;99.90
13205;DHT22;6667;52.634;9.226;2023-08-06T11:04:00;29.40;99.90
13205;DHT22;6667;52.634;9.226;2023-08-06T11:06:29;28.70;99.90
13205;DHT22;6667;52.634;9.226;2023-08-06T11:11:55;27.80;99.90
13205;DHT22;6667;52.634;9.226;2023-08-06T11:17:58;27.90;99.90
13205;DHT22;6667;52.634;9.226;2023-08-06T11:20:34;27.90;99.90
13205;DHT22;6667;52.634;9.226;2023-08-06T11:23:03;27.90;99.90
13205;DHT22;6667;52.634;9.226;2023-08-06T11:25:30;27.60;99.90
13205;DHT22;6667;52.634;9.226;2023-08-06T11:27:57;27.60;99.90
13205;DHT22;6667;52.634;9.226;2023-08-06T11:30:24;27.60;99.90
13205;DHT22;6667;52.634;9.226;2023-08-06T11:32:51;27.30;99.90
13205;DHT22;6667;52.634;9.226;2023-08-06T11:35:21;27.20;99.90
13205;DHT22;6667;52.634;9.226;2023-08-06T11:37:48;27.60;99.90
13205;DHT22;6667;52.634;9.226;2023-08-06T11:40:16;27.10;99.90
13205;DHT22;6667;52.634;9.226;2023-08-06T11:42:46;27.40;99.90
13205;DHT22;6667;52.634;9.226;2023-08-06T11:45:12;27.20;99.90
13205;DHT22;6667;52.634;9.226;2023-08-06T11:47:39;26.40;99.90
13205;DHT22;6667;52.634;9.226;2023-08-06T11:50:07;26.00;99.90
13205;DHT22;6667;52.634;9.226;2023-08-06T11:52:34;26.50;99.90
13205;DHT22;6667;52.634;9.226;2023-08-06T11:55:02;27.70;99.90
13205;DHT22;6667;52.634;9.226;2023-08-06T11:57:33;27.20;99.90
13205;DHT22;6667;52.634;9.226;2023-08-06T12:00:04;26.20;99.90
13205;DHT22;6667;52.634;9.226;2023-08-06T12:02:32;25.80;99.90
13205;DHT22;6667;52.634;9.226;2023-08-06T12:05:03;26.50;99.90
13205;DHT22;6667;52.634;9.226;2023-08-06T12:07:32;26.50;99.90
13205;DHT22;6667;52.634;9.226;2023-08-06T12:09:59;26.90;99.90
13205;DHT22;6667;52.634;9.226;2023-08-06T12:12:26;26.80;99.90
13205;DHT22;6667;52.634;9.226;2023-08-06T12:14:54;27.10;99.90
13205;DHT22;6667;52.634;9.226;2023-08-06T12:17:21;27.20;99.90
13205;DHT22;6667;52.634;9.226;2023-08-06T12:19:48;27.30;99.90
13205;DHT22;6667;52.634;9.226;2023-08-06T12:22:15;27.00;99.90
13205;DHT22;6667;52.634;9.226;2023-08-06T12:24:42;27.10;99.90
13205;DHT22;6667;52.634;9.226;2023-08-06T12:27:10;26.70;99.90
13205;DHT22;6667;52.634;9.226;2023-08-06T12:32:42;26.00;99.90
13205;DHT22;6667;52.634;9.226;2023-08-06T12:35:08;26.30;99.90
13205;DHT22;6667;52.634;9.226;2023-08-06T12:37:35;25.50;99.90
13205;DHT22;6667;52.634;9.226;2023-08-06T12:40:04;25.50;99.90
13205;DHT22;6667;52.634;9.226;2023-08-06T12:42:30;25.60;99.90
13205;DHT22;6667;52.634;9.226;2023-08-06T12:44:59;25.70;99.90
13205;DHT22;6667;52.634;9.226;2023-08-06T12:47:26;25.80;99.90
13205;DHT22;6667;52.634;9.226;2023-08-06T12:49:54;26.60;99.90
13205;DHT22;6667;52.634;9.226;2023-08-06T12:52:21;26.50;99.90
13205;DHT22;6667;52.634;9.226;2023-08-06T12:54:48;27.00;99.90
13205;DHT22;6667;52.634;9.226;2023-08-06T12:57:14;26.70;99.90
13205;DHT22;6667;52.634;9.226;2023-08-06T12:59:41;26.80;99.90
13205;DHT22;6667;52.634;9.226;2023-08-06T13:02:08;26.50;99.90
13205;DHT22;6667;52.634;9.226;2023-08-06T13:04:34;27.00;99.90
13205;DHT22;6667;52.634;9.226;2023-08-06T13:07:02;27.10;99.90
13205;DHT22;6667;52.634;9.226;2023-08-06T13:09:31;27.20;99.90
13205;DHT22;6667;52.634;9.226;2023-08-06T13:11:58;27.60;99.90
13205;DHT22;6667;52.634;9.226;2023-08-06T13:14:25;28.20;99.90
13205;DHT22;6667;52.634;9.226;2023-08-06T13:16:53;27.30;99.90
13205;DHT22;6667;52.634;9.226;2023-08-06T13:19:20;26.60;99.90
13205;DHT22;6667;52.634;9.226;2023-08-06T13:22:03;26.20;99.90
13205;DHT22;6667;52.634;9.226;2023-08-06T13:24:38;26.30;99.90
13205;DHT22;6667;52.634;9.226;2023-08-06T13:27:05;26.50;99.90
13205;DHT22;6667;52.634;9.226;2023-08-06T13:29:33;26.30;99.90
13205;DHT22;6667;52.634;9.226;2023-08-06T13:32:00;25.90;99.90
13205;DHT22;6667;52.634;9.226;2023-08-06T13:34:27;26.00;99.90
13205;DHT22;6667;52.634;9.226;2023-08-06T13:36:54;26.10;99.90
13205;DHT22;6667;52.634;9.226;2023-08-06T13:39:22;25.90;99.90
13205;DHT22;6667;52.634;9.226;2023-08-06T13:41:49;25.50;99.90
13205;DHT22;6667;52.634;9.226;2023-08-06T13:44:16;25.40;99.90
13205;DHT22;6667;52.634;9.226;2023-08-06T13:46:42;25.50;99.90
13205;DHT22;6667;52.634;9.226;2023-08-06T13:49:09;25.30;99.90
13205;DHT22;6667;52.634;9.226;2023-08-06T13:51:36;25.20;99.90
13205;DHT22;6667;52.634;9.226;2023-08-06T13:54:14;25.00;99.90
13205;DHT22;6667;52.634;9.226;2023-08-06T13:56:43;24.80;99.90
13205;DHT22;6667;52.634;9.226;2023-08-06T13:59:23;24.60;99.90
13205;DHT22;6667;52.634;9.226;2023-08-06T14:01:50;24.40;99.90
13205;DHT22;6667;52.634;9.226;2023-08-06T14:04:19;24.10;99.90
13205;DHT22;6667;52.634;9.226;2023-08-06T14:07:15;24.00;99.90
13205;DHT22;6667;52.634;9.226;2023-08-06T14:09:41;24.00;99.90
13205;DHT22;6667;52.634;9.226;2023-08-06T14:12:11;24.10;99.90
13205;DHT22;6667;52.634;9.226;2023-08-06T14:14:38;24.20;99.90
13205;DHT22;6667;52.634;9.226;2023-08-06T14:20:41;24.10;99.90
13205;DHT22;6667;52.634;9.226;2023-08-06T14:26:58;24.30;99.90
13205;DHT22;6667;52.634;9.226;2023-08-06T14:29:36;24.00;99.90
13205;DHT22;6667;52.634;9.226;2023-08-06T14:32:03;23.80;99.90
13205;DHT22;6667;52.634;9.226;2023-08-06T14:34:30;23.60;99.90
13205;DHT22;6667;52.634;9.226;2023-08-06T14:37:03;23.90;99.90
13205;DHT22;6667;52.634;9.226;2023-08-06T14:39:30;23.80;99.90
13205;DHT22;6667;52.634;9.226;2023-08-06T14:41:57;23.60;99.90
13205;DHT22;6667;52.634;9.226;2023-08-06T14:44:43;23.50;99.90
13205;DHT22;6667;52.634;9.226;2023-08-06T14:47:43;23.40;99.90
13205;DHT22;6667;52.634;9.226;2023-08-06T14:50:34;23.40;99.90
13205;DHT22;6667;52.634;9.226;2023-08-06T14:53:02;23.20;99.90
13205;DHT22;6667;52.634;9.226;2023-08-06T14:55:30;23.20;99.90
13205;DHT22;6667;52.634;9.226;2023-08-06T14:58:44;23.20;99.90
13205;DHT22;6667;52.634;9.226;2023-08-06T15:04:48;23.60;99.90
13205;DHT22;6667;52.634;9.226;2023-08-06T15:13:45;23.90;99.90
13205;DHT22;6667;52.634;9.226;2023-08-06T15:16:18;23.90;99.90
13205;DHT22;6667;52.634;9.226;2023-08-06T15:18:45;23.40;99.90
13205;DHT22;6667;52.634;9.226;2023-08-06T15:21:13;23.10;99.90
13205;DHT22;6667;52.634;9.226;2023-08-06T15:23:40;23.20;99.90
13205;DHT22;6667;52.634;9.226;2023-08-06T15:26:07;23.20;99.90
13205;DHT22;6667;52.634;9.226;2023-08-06T15:28:34;23.30;99.90
13205;DHT22;6667;52.634;9.226;2023-08-06T15:31:01;23.40;99.90
13205;DHT22;6667;52.634;9.226;2023-08-06T15:33:29;23.30;99.90
13205;DHT22;6667;52.634;9.226;2023-08-06T15:35:56;23.50;99.90
13205;DHT22;6667;52.634;9.226;2023-08-06T15:38:25;23.00;99.90
13205;DHT22;6667;52.634;9.226;2023-08-06T15:40:51;22.80;99.90
13205;DHT22;6667;52.634;9.226;2023-08-06T15:43:18;22.70;99.90
13205;DHT22;6667;52.634;9.226;2023-08-06T15:45:45;22.70;99.90
13205;DHT22;6667;52.634;9.226;2023-08-06T15:48:12;22.70;99.90
13205;DHT22;6667;52.634;9.226;2023-08-06T15:50:39;22.60;99.90
13205;DHT22;6667;52.634;9.226;2023-08-06T15:53:06;22.80;99.90
13205;DHT22;6667;52.634;9.226;2023-08-06T15:55:34;22.70;99.90
13205;DHT22;6667;52.634;9.226;2023-08-06T15:58:03;22.70;99.90
13205;DHT22;6667;52.634;9.226;2023-08-06T16:00:30;22.70;99.90
13205;DHT22;6667;52.634;9.226;2023-08-06T16:02:57;22.40;99.90
13205;DHT22;6667;52.634;9.226;2023-08-06T16:05:24;22.40;99.90
13205;DHT22;6667;52.634;9.226;2023-08-06T16:07:52;22.20;99.90
13205;DHT22;6667;52.634;9.226;2023-08-06T16:10:19;22.00;99.90
13205;DHT22;6667;52.634;9.226;2023-08-06T16:13:08;22.00;99.90
13205;DHT22;6667;52.634;9.226;2023-08-06T16:15:34;22.10;99.90
13205;DHT22;6667;52.634;9.226;2023-08-06T16:18:04;22.00;99.90
13205;DHT22;6667;52.634;9.226;2023-08-06T16:20:59;22.00;99.90
13205;DHT22;6667;52.634;9.226;2023-08-06T16:23:26;22.20;99.90
13205;DHT22;6667;52.634;9.226;2023-08-06T16:25:55;22.20;99.90
13205;DHT22;6667;52.634;9.226;2023-08-06T16:28:30;22.00;99.90
13205;DHT22;6667;52.634;9.226;2023-08-06T16:30:57;21.90;99.90
13205;DHT22;6667;52.634;9.226;2023-08-06T16:33:24;21.90;99.90
13205;DHT22;6667;52.634;9.226;2023-08-06T16:35:50;21.90;99.90
13205;DHT22;6667;52.634;9.226;2023-08-06T16:38:20;21.70;99.90
13205;DHT22;6667;52.634;9.226;2023-08-06T16:40:52;21.70;99.90
13205;DHT22;6667;52.634;9.226;2023-08-06T16:43:19;21.50;99.90
13205;DHT22;6667;52.634;9.226;2023-08-06T16:45:47;21.50;99.90
13205;DHT22;6667;52.634;9.226;2023-08-06T16:48:13;21.50;99.90
13205;DHT22;6667;52.634;9.226;2023-08-06T16:50:40;21.50;99.90
13205;DHT22;6667;52.634;9.226;2023-08-06T16:53:07;21.60;99.90